ESMSLGRP

Guest
Details From ESMS - Malmo Sturup
To LGRP - Diagoras
Flight Number -
Tags Generated
Created
Modified
Stats Distance 1,296 nm / 2,401 km
Max Altitude 0 ft / 0 m
Waypoints 5
Social Downloads 0
Likes 0
Share VATSIM

Download

Looking for another format? Having issues loading an existing format? Contact us
Advertisement - Login to hide

Notes

Generated

Route

ESMS BESTO PITOK YUNUS LGRP

ID Type Via Altitude Latitude Longitude Leg Dist Tot Dist Heading (true) Name
O ESMS APT - 0 ft / 0 m 55.52314˚ 13.35978˚ - 0 nm - -
BESTO FIX - 0 ft / 0 m 51.73000˚ 17.39889˚ 269 nm 269 nm 146° / 149° -
PITOK FIX - 0 ft / 0 m 48.32396˚ 20.37084˚ 234 nm 503 nm 150° / 152° -
YUNUS FIX - 0 ft / 0 m 36.70722˚ 27.88278˚ 771 nm 1275 nm 152° / 157° -
O LGRP APT - 0 ft / 0 m 36.40034˚ 28.06887˚ 20 nm 1296 nm 154° / 154° -

Altitude Profile

Advertisement - Login to hide

Weather


0- 5 10 15 20 25 30 35+ Temperature / ° C

Clouds and Precipitation
Forecast for 2018-05-25 18:00 UTC. Updated 4 hours ago

Ground ~20,000 ft ~40,000 ft Winds

ESMS

Details ICAO ESMS (MMX)
Name Malmo Sturup
Region Sweden
Timezone Europe/Stockholm (UTC+2.0)
Stats Elevation 236 ft / 72 m (AMSL)
Location 55.528883° 13.371109°
Runways 2
Magnetic Variation 4.029° E

METAR

ESMS 252050Z 08010KT CAVOK 16/09 Q1025

Decode

TAF

TAF ESMS 251659Z 2518/2618 08010KT CAVOK PROB40 TEMPO 2606/2618 4000 TSRA SCT050CB

Decode

Departure Runways

ID Width Length Bearing (true) Bearing (mag) Surface Threshold Offset Overrun Length
11 59 ft / 18 m 2,609 ft / 795 m 105.31° 101.28° Asphalt 0 ft / 0 m 0 ft / 0 m
17 148 ft / 45 m 9,176 ft / 2,797 m 173.36° 169.33° Asphalt 0 ft / 0 m 98 ft / 30 m
29 59 ft / 18 m 2,609 ft / 795 m 285.32° 281.29° Asphalt 0 ft / 0 m 0 ft / 0 m
35 148 ft / 45 m 9,176 ft / 2,797 m 353.37° 349.34° Asphalt 0 ft / 0 m 98 ft / 30 m

LGRP

Details ICAO LGRP (RHO)
Name DIAGORAS
Region Greece
Timezone Europe/Athens (UTC+3.0)
Stats Elevation 17 ft / 5 m (AMSL)
Location 36.405420° 28.086193°
Runways 1
Magnetic Variation 4.822° E

METAR

LGRP 252050Z 25008KT 9999 SCT018 22/19 Q1007 NOSIG

Decode

TAF

TAF LGRP 251700Z 2518/2618 25015KT 9999 FEW018 BECMG 2607/2609 10010KT PROB30 TEMPO 2607/2616 5000 RA SCT018 BKN030

Decode

Destination Runways

ID Width Length Bearing (true) Bearing (mag) Surface Threshold Offset Overrun Length
07 148 ft / 45 m 10,830 ft / 3,301 m 69.97° 65.15° Asphalt 0 ft / 0 m 0 ft / 0 m
25 148 ft / 45 m 10,830 ft / 3,301 m 249.99° 245.17° Asphalt 0 ft / 0 m 0 ft / 0 m

Approach Navaids

Runway Type Ident Frequency Range Bearing (true) Bearing (mag) Slope Elevation
25 Localiser IRDS 110.30 MHz 18 nm / 33 km 250.45° 245.62° - 17 ft / 5 m (AMSL)
25 Glidescope IRDS 110.30 MHz 10 nm / 19 km 249.98° 245.16° 3.00° 17 ft / 5 m (AMSL)

Popular Alternatives